Time;durP1;ratioP1;P1;durP2;ratioP2;P2;SDS_P1;SDS_P2;PMS_P1;PMS_P2;Temp;Humidity;BMP_temperature;BMP_pressure;BME280_temperature;BME280_humidity;BME280_pressure;Samples;Min_cycle;Max_cycle;Signal;HPM_P1;HPM_P2
2022/05/10 00:01:30;;;;;;;4.70;2.70;;;;;;;14.98;49.60;100257.38;5114366;28;20038;-37
2022/05/10 00:03:57;;;;;;;6.80;2.38;;;;;;;15.14;49.16;100256.84;5113898;28;20122;-37
2022/05/10 00:06:24;;;;;;;6.55;2.83;;;;;;;15.04;49.05;100259.19;5114060;28;20055;-37
2022/05/10 00:08:50;;;;;;;6.28;2.70;;;;;;;14.94;49.28;100256.19;5114259;28;20478;-37
2022/05/10 00:11:15;;;;;;;6.45;2.67;;;;;;;15.02;49.21;100262.09;5114659;28;20027;-37
2022/05/10 00:13:41;;;;;;;3.72;2.50;;;;;;;14.89;48.92;100256.84;5114238;28;20165;-37
2022/05/10 00:16:17;;;;;;;5.22;2.53;;;;;;;14.68;49.61;100258.06;5114121;28;20035;-37
2022/05/10 00:18:43;;;;;;;5.82;2.53;;;;;;;14.60;49.51;100248.44;5114250;28;20379;-36
2022/05/10 00:21:11;;;;;;;9.23;2.85;;;;;;;14.49;49.71;100251.78;5114027;28;20051;-37
2022/05/10 00:23:37;;;;;;;7.35;2.40;;;;;;;13.73;51.57;100244.56;5113800;28;20066;-37
2022/05/10 00:26:02;;;;;;;8.60;3.03;;;;;;;13.55;52.20;100235.38;5113831;28;20027;-37
2022/05/10 00:28:29;;;;;;;5.22;2.70;;;;;;;13.61;52.56;100237.22;5113752;28;20031;-38
2022/05/10 00:30:54;;;;;;;6.95;2.55;;;;;;;13.78;51.90;100234.03;5113879;28;20028;-38
2022/05/10 00:33:27;;;;;;;7.43;2.75;;;;;;;13.73;51.78;100234.69;5113876;28;20411;-38
2022/05/10 00:35:54;;;;;;;4.18;2.67;;;;;;;13.35;52.52;100234.63;5113747;28;20031;-38
2022/05/10 00:38:24;;;;;;;4.63;2.75;;;;;;;13.81;51.55;100237.13;5113499;28;20455;-37
2022/05/10 00:40:50;;;;;;;8.02;2.75;;;;;;;14.16;50.66;100235.91;5114072;28;20031;-37
2022/05/10 00:43:38;;;;;;;5.25;3.00;;;;;;;14.38;49.63;100226.50;5113913;28;20540;-37
2022/05/10 00:46:11;;;;;;;4.07;2.85;;;;;;;14.52;49.40;100235.25;5113863;28;20051;-37
2022/05/10 00:48:57;;;;;;;5.50;2.97;;;;;;;14.40;49.43;100234.31;5113653;28;20049;-37
2022/05/10 00:51:38;;;;;;;3.33;2.70;;;;;;;14.43;49.80;100231.19;5113518;28;20042;-38
2022/05/10 00:54:09;;;;;;;;;;;;;;;14.32;50.24;100229.22;5114151;28;20171;-38
2022/05/10 00:56:51;;;;;;;5.15;2.83;;;;;;;14.49;49.09;100241.06;5113358;28;19908;-37
2022/05/10 00:59:53;;;;;;;5.50;2.72;;;;;;;14.24;50.38;100233.81;5113455;28;20035;-37
2022/05/10 01:02:31;;;;;;;4.20;2.58;;;;;;;14.29;49.92;100230.47;5098748;28;20090;-37
2022/05/10 01:05:04;;;;;;;4.43;2.60;;;;;;;14.22;50.33;100235.88;5113139;28;20040;-38
2022/05/10 01:07:38;;;;;;;5.70;3.00;;;;;;;14.27;50.09;100232.56;5112465;28;20321;-37
2022/05/10 01:10:17;;;;;;;10.02;2.83;;;;;;;14.23;50.09;100234.03;5113178;28;20108;-37
2022/05/10 01:12:49;;;;;;;4.88;2.90;;;;;;;14.39;49.76;100222.81;5113015;28;20027;-37
2022/05/10 01:15:18;;;;;;;3.85;2.53;;;;;;;14.38;50.79;100233.72;5112613;28;20026;-37
2022/05/10 01:17:46;;;;;;;9.02;3.22;;;;;;;14.43;49.66;100233.88;5112977;28;20074;-38
2022/05/10 01:20:26;;;;;;;4.82;2.85;;;;;;;14.52;49.64;100235.25;5113011;28;20050;-38
2022/05/10 01:23:21;;;;;;;4.63;2.97;;;;;;;14.68;49.00;100231.28;5112878;28;20059;-38
2022/05/10 01:25:58;;;;;;;7.40;2.78;;;;;;;14.59;49.18;100227.22;5113089;28;20046;-38
2022/05/10 01:28:32;;;;;;;4.90;2.75;;;;;;;14.40;50.02;100220.94;5113010;28;20100;-38
2022/05/10 01:31:04;;;;;;;4.72;2.88;;;;;;;14.30;50.59;100220.59;5112839;28;20505;-38
2022/05/10 01:33:42;;;;;;;7.88;2.97;;;;;;;14.27;50.22;100219.16;5112617;28;20059;-38
2022/05/10 01:36:36;;;;;;;3.65;2.70;;;;;;;14.34;49.52;100213.78;5112952;28;20385;-39
2022/05/10 01:39:05;;;;;;;4.95;2.72;;;;;;;14.35;49.32;100220.75;5112546;28;20015;-37
2022/05/10 01:41:49;;;;;;;4.75;2.60;;;;;;;14.42;49.05;100213.50;5112475;28;20471;-37
2022/05/10 01:44:23;;;;;;;4.88;2.80;;;;;;;14.34;49.16;100221.81;5112426;28;20034;-37
2022/05/10 01:46:56;;;;;;;8.02;3.05;;;;;;;14.41;49.09;100219.88;5112541;28;20424;-37
2022/05/10 01:49:45;;;;;;;8.98;3.10;;;;;;;14.19;49.71;100208.72;5112427;28;20542;-37
2022/05/10 01:52:22;;;;;;;10.30;3.00;;;;;;;14.07;50.10;100213.94;5112514;28;20055;-37
2022/05/10 01:55:18;;;;;;;4.10;2.90;;;;;;;14.21;49.79;100214.69;5112557;28;20076;-37
2022/05/10 01:57:44;;;;;;;5.45;2.90;;;;;;;14.23;49.89;100220.63;5111952;28;20020;-37
2022/05/10 02:00:18;;;;;;;7.57;3.08;;;;;;;14.13;50.59;100213.09;5112110;28;20023;-37
2022/05/10 02:02:50;;;;;;;7.70;2.88;;;;;;;14.10;50.16;100215.38;5111670;28;20024;-38
2022/05/10 02:05:23;;;;;;;7.15;3.10;;;;;;;14.01;51.15;100226.34;5112197;28;20024;-38
2022/05/10 02:07:53;;;;;;;4.50;2.90;;;;;;;14.00;51.80;100226.53;5111972;28;20048;-38
2022/05/10 02:10:27;;;;;;;5.35;2.70;;;;;;;14.15;51.65;100221.72;5111843;28;20020;-38
2022/05/10 02:13:24;;;;;;;4.68;2.85;;;;;;;14.25;51.29;100218.56;5111661;28;20024;-37
2022/05/10 02:15:54;;;;;;;7.38;3.03;;;;;;;14.13;51.14;100215.75;5109724;28;20115;-38
2022/05/10 02:18:27;;;;;;;8.98;3.00;;;;;;;14.07;51.22;100212.09;5111759;28;20035;-38
2022/05/10 02:21:01;;;;;;;5.57;3.38;;;;;;;14.07;51.73;100217.44;5111825;28;20142;-38
2022/05/10 02:24:04;;;;;;;6.00;3.05;;;;;;;14.23;51.68;100215.28;5111581;28;20023;-38
2022/05/10 02:26:54;;;;;;;8.23;3.53;;;;;;;14.15;51.63;100213.69;5111464;28;20111;-37
2022/05/10 02:29:38;;;;;;;8.13;3.40;;;;;;;14.16;51.39;100207.28;5111236;28;20122;-38
2022/05/10 02:35:14;;;;;;;4.45;3.50;;;;;;;14.08;51.98;100207.56;5111598;28;20046;-37
2022/05/10 02:37:40;;;;;;;6.45;3.55;;;;;;;13.97;52.28;100211.72;5111243;28;20408;-37
2022/05/10 02:40:07;;;;;;;7.13;3.50;;;;;;;13.93;52.05;100205.16;5111472;28;20516;-37
2022/05/10 02:42:33;;;;;;;7.80;3.53;;;;;;;13.76;52.84;100199.47;5111311;28;20168;-38
2022/05/10 02:45:00;;;;;;;9.10;4.00;;;;;;;13.86;53.07;100204.41;5111794;28;20092;-37
2022/05/10 02:47:37;;;;;;;9.70;4.25;;;;;;;13.93;52.65;100207.03;5111443;28;20437;-39
2022/05/10 02:50:05;;;;;;;12.70;4.15;;;;;;;13.81;52.99;100204.22;5111322;28;20090;-37
2022/05/10 02:52:30;;;;;;;11.65;4.40;;;;;;;13.74;53.15;100206.91;5111128;28;20036;-38
2022/05/10 02:55:00;;;;;;;9.73;4.47;;;;;;;13.69;53.20;100204.88;5111334;28;20024;-38
2022/05/10 02:57:27;;;;;;;18.70;4.47;;;;;;;13.87;52.78;100209.50;5110560;28;20037;-38
2022/05/10 02:59:59;;;;;;;12.68;4.97;;;;;;;13.97;52.66;100210.91;5110627;28;20023;-38
2022/05/10 03:02:31;;;;;;;14.45;4.90;;;;;;;13.79;53.72;100206.28;5110649;28;20043;-38
2022/05/10 03:04:58;;;;;;;13.20;4.95;;;;;;;13.94;53.12;100197.97;5110824;28;20035;-38
2022/05/10 03:07:29;;;;;;;15.43;4.90;;;;;;;13.88;53.25;100208.50;5110904;28;20104;-38
2022/05/10 03:09:54;;;;;;;13.55;4.53;;;;;;;13.85;53.80;100198.19;5111139;28;20143;-38
2022/05/10 03:12:21;;;;;;;13.00;4.65;;;;;;;13.93;54.02;100202.47;5110477;28;20427;-37
2022/05/10 03:14:47;;;;;;;9.70;4.68;;;;;;;13.96;53.28;100203.94;5110692;28;20027;-38
2022/05/10 03:17:13;;;;;;;11.43;4.38;;;;;;;13.96;53.83;100196.72;5110699;28;20443;-38
2022/05/10 03:19:40;;;;;;;18.85;5.00;;;;;;;13.98;53.54;100201.84;5110965;28;20030;-37
2022/05/10 03:22:05;;;;;;;15.02;5.28;;;;;;;14.00;53.72;100205.13;5110770;28;20027;-38
2022/05/10 03:24:32;;;;;;;18.10;5.35;;;;;;;13.88;53.81;100203.13;5111194;28;20032;-38
2022/05/10 03:26:59;;;;;;;17.75;5.57;;;;;;;14.02;53.65;100206.56;5111086;28;20106;-37
2022/05/10 03:29:25;;;;;;;13.85;5.40;;;;;;;13.93;53.94;100199.81;5111410;28;20102;-37
2022/05/10 03:31:51;;;;;;;19.10;5.13;;;;;;;13.85;54.31;100197.38;5115300;28;20055;-37
2022/05/10 03:37:02;;;;;;;11.32;6.50;;;;;;;13.89;53.19;100188.72;5115116;28;20414;-37
2022/05/10 03:39:27;;;;;;;24.17;13.40;;;;;;;14.11;53.33;100208.97;5114283;28;20039;-37
2022/05/10 03:41:53;;;;;;;26.70;13.18;;;;;;;14.20;53.04;100207.69;5114310;28;20023;-39
2022/05/10 03:44:18;;;;;;;49.95;22.52;;;;;;;14.19;52.58;100217.56;5113677;28;20019;-38
2022/05/10 03:46:44;;;;;;;17.52;7.25;;;;;;;14.36;52.28;100217.06;5113574;28;20024;-38
2022/05/10 03:49:10;;;;;;;11.43;4.32;;;;;;;14.56;51.74;100217.72;5113846;28;20100;-38
2022/05/10 03:51:36;;;;;;;15.95;4.38;;;;;;;14.78;51.80;100228.09;5113525;28;20023;-38
2022/05/10 03:54:02;;;;;;;14.45;4.82;;;;;;;15.04;50.85;100218.97;5113374;28;20028;-38
2022/05/10 03:56:27;;;;;;;17.95;4.82;;;;;;;15.41;50.35;100219.84;5113458;28;20043;-37
2022/05/10 03:58:53;;;;;;;15.38;4.55;;;;;;;15.67;49.65;100215.22;5113801;28;20528;-38
2022/05/10 04:01:20;;;;;;;13.98;4.32;;;;;;;15.97;48.88;100220.63;5113064;28;20058;-38
2022/05/10 04:03:45;;;;;;;14.45;4.53;;;;;;;16.03;48.96;100225.09;5113750;28;20043;-36
2022/05/10 04:06:11;;;;;;;7.93;4.10;;;;;;;16.40;48.61;100222.28;5113536;28;20116;-38
2022/05/10 04:08:37;;;;;;;8.00;4.35;;;;;;;16.55;47.80;100232.59;5113483;28;20024;-37
2022/05/10 04:11:04;;;;;;;9.57;3.97;;;;;;;16.97;47.55;100231.72;5113602;28;20107;-39
2022/05/10 04:13:29;;;;;;;10.25;4.50;;;;;;;17.39;46.14;100226.19;5113132;28;20141;-38
2022/05/10 04:15:55;;;;;;;11.18;6.38;;;;;;;17.44;45.74;100231.69;5112775;28;20107;-38
2022/05/10 04:18:21;;;;;;;34.92;20.17;;;;;;;17.88;46.32;100229.38;5111715;28;20015;-38
2022/05/10 04:20:46;;;;;;;47.08;26.73;;;;;;;17.95;45.11;100232.75;5112554;28;20016;-38
2022/05/10 04:23:12;;;;;;;15.13;7.90;;;;;;;18.14;44.74;100225.28;5112021;28;20012;-39
2022/05/10 04:25:37;;;;;;;13.25;7.63;;;;;;;18.21;43.68;100227.81;5111778;28;20099;-37
2022/05/10 04:28:05;;;;;;;14.90;7.28;;;;;;;18.60;42.97;100230.66;5111440;28;20424;-38
2022/05/10 04:30:30;;;;;;;21.27;11.23;;;;;;;18.39;42.95;100231.34;5112022;28;20483;-37
2022/05/10 04:32:56;;;;;;;18.85;7.85;;;;;;;18.31;43.13;100235.25;5112345;28;20084;-38
2022/05/10 04:35:21;;;;;;;11.45;7.22;;;;;;;18.32;43.65;100229.63;5112023;28;20451;-38
2022/05/10 04:37:46;;;;;;;13.23;7.15;;;;;;;18.65;43.10;100238.78;5111909;28;20414;-38
2022/05/10 04:42:57;;;;;;;27.10;8.23;;;;;;;18.52;44.87;100242.66;5111694;28;20062;-37
2022/05/10 04:45:22;;;;;;;13.27;6.80;;;;;;;19.21;43.21;100238.88;5112673;28;20164;-37
2022/05/10 04:47:48;;;;;;;25.58;15.80;;;;;;;19.85;41.48;100245.63;5112451;28;20027;-37
2022/05/10 04:50:14;;;;;;;16.73;9.07;;;;;;;20.32;40.11;100231.53;5112187;28;20020;-38
2022/05/10 04:52:39;;;;;;;9.98;6.15;;;;;;;20.94;38.91;100238.28;5112302;28;20020;-38
2022/05/10 04:55:08;;;;;;;21.05;11.77;;;;;;;21.15;37.85;100235.69;5111927;28;20024;-37
2022/05/10 04:57:35;;;;;;;15.55;8.55;;;;;;;21.38;37.59;100218.22;5112338;28;20032;-38
2022/05/10 05:00:01;;;;;;;11.07;6.97;;;;;;;22.05;36.70;100235.56;5111491;28;20134;-38
2022/05/10 05:02:26;;;;;;;15.77;8.43;;;;;;;22.35;36.09;100242.13;5110840;28;20406;-37
2022/05/10 05:04:51;;;;;;;17.23;9.68;;;;;;;22.59;35.19;100226.97;5111713;28;20020;-37
2022/05/10 05:07:17;;;;;;;15.50;10.70;;;;;;;22.53;34.79;100238.09;5111068;28;20052;-37
2022/05/10 05:09:43;;;;;;;19.30;9.73;;;;;;;22.38;34.90;100242.41;5111121;28;20022;-38
2022/05/10 05:12:10;;;;;;;12.45;7.82;;;;;;;22.69;35.04;100237.00;5111436;28;20112;-38
2022/05/10 05:14:35;;;;;;;18.45;13.07;;;;;;;22.94;34.61;100235.34;5111262;28;20092;-37
2022/05/10 05:17:01;;;;;;;22.45;12.98;;;;;;;23.40;33.59;100241.50;5111365;28;20031;-37
2022/05/10 05:19:26;;;;;;;11.45;8.40;;;;;;;23.63;33.56;100244.69;5111133;28;20020;-37
2022/05/10 05:21:52;;;;;;;17.63;8.10;;;;;;;24.00;32.71;100240.72;5111292;28;20382;-37
2022/05/10 05:24:17;;;;;;;13.13;7.45;;;;;;;24.34;32.01;100240.75;5111256;28;20027;-37
2022/05/10 05:26:42;;;;;;;11.50;6.90;;;;;;;24.71;31.35;100238.59;5111114;28;20024;-37
2022/05/10 05:29:08;;;;;;;13.05;6.63;;;;;;;24.87;30.69;100239.28;5111155;28;20125;-37
2022/05/10 05:31:34;;;;;;;11.20;6.55;;;;;;;24.97;30.60;100236.44;5111425;28;20383;-37
2022/05/10 05:33:59;;;;;;;17.55;6.50;;;;;;;25.02;30.92;100238.28;5105096;28;20537;-36
2022/05/10 05:36:24;;;;;;;10.50;6.50;;;;;;;24.18;31.22;100239.25;5102601;28;20019;-41
2022/05/10 05:38:50;;;;;;;15.13;5.78;;;;;;;24.74;30.56;100232.59;5091079;28;20021;-49
2022/05/10 05:41:19;;;;;;;12.07;5.80;;;;;;;25.16;30.19;100231.88;5091131;28;20121;-38
2022/05/10 05:43:45;;;;;;;17.02;6.68;;;;;;;25.32;30.58;100231.75;5091116;28;20020;-37
2022/05/10 05:46:10;;;;;;;10.68;6.13;;;;;;;26.03;28.92;100237.44;5091645;28;20111;-37
2022/05/10 05:48:37;;;;;;;14.10;5.85;;;;;;;25.27;29.71;100227.19;5091542;28;20452;-37
2022/05/10 05:51:03;;;;;;;11.85;8.18;;;;;;;25.66;28.93;100231.59;5091385;28;20027;-37
2022/05/10 05:53:28;;;;;;;17.17;5.90;;;;;;;24.87;29.84;100233.84;5090817;28;20099;-37
2022/05/10 05:56:09;;;;;;;17.55;5.50;;;;;;;25.66;28.99;100222.63;5091131;28;20035;-37
2022/05/10 05:58:36;;;;;;;12.68;5.25;;;;;;;26.49;29.13;100234.78;5090955;28;20020;-37
2022/05/10 06:01:09;;;;;;;10.15;5.07;;;;;;;26.66;27.90;100239.72;5105701;28;20031;-38
2022/05/10 06:03:35;;;;;;;11.70;4.60;;;;;;;26.44;28.19;100240.31;5111717;28;20463;-37
2022/05/10 06:06:00;;;;;;;9.57;4.07;;;;;;;27.09;27.28;100234.03;5111653;28;20227;-37
2022/05/10 06:08:26;;;;;;;11.07;4.10;;;;;;;27.16;27.42;100239.09;5111498;28;20020;-38
2022/05/10 06:10:52;;;;;;;8.07;4.00;;;;;;;27.53;26.08;100233.75;5111729;28;20020;-37
2022/05/10 06:13:20;;;;;;;12.38;6.30;;;;;;;27.36;26.54;100237.94;5111621;28;20027;-37
2022/05/10 06:15:46;;;;;;;9.20;4.70;;;;;;;27.54;26.41;100227.19;5111264;28;20035;-36
2022/05/10 06:18:11;;;;;;;7.47;3.75;;;;;;;27.80;26.24;100241.94;5111353;28;20120;-37
2022/05/10 06:20:37;;;;;;;7.95;3.78;;;;;;;28.27;25.31;100239.81;5111181;28;20041;-37
2022/05/10 06:23:03;;;;;;;9.38;4.05;;;;;;;28.11;25.54;100243.19;5110818;28;20024;-36
2022/05/10 06:25:29;;;;;;;8.23;4.10;;;;;;;28.21;25.47;100243.75;5110965;28;20015;-37
2022/05/10 06:27:55;;;;;;;9.93;4.20;;;;;;;27.32;26.29;100239.63;5110847;28;20031;-37
2022/05/10 06:30:23;;;;;;;9.75;4.00;;;;;;;26.85;26.38;100236.94;5110882;28;20344;-37
2022/05/10 06:32:49;;;;;;;8.27;4.45;;;;;;;25.51;28.66;100238.06;5110620;28;20016;-37
2022/05/10 06:35:16;;;;;;;10.55;4.10;;;;;;;27.07;27.18;100235.44;5111075;28;20102;-38
2022/05/10 06:40:25;;;;;;;6.78;3.85;;;;;;;28.01;25.29;100244.25;5110855;28;20470;-38
2022/05/10 06:42:51;;;;;;;10.38;3.70;;;;;;;28.32;25.12;100230.66;5110595;28;20049;-37
2022/05/10 06:45:18;;;;;;;5.70;3.22;;;;;;;28.34;24.63;100233.06;5110899;28;20475;-37
2022/05/10 06:47:47;;;;;;;11.55;3.50;;;;;;;28.52;24.39;100236.75;5110633;28;20037;-38
2022/05/10 06:50:16;;;;;;;7.53;3.50;;;;;;;28.90;32.40;100248.13;5110867;28;20023;-37
2022/05/10 06:52:42;;;;;;;7.00;3.00;;;;;;;29.79;25.52;100240.72;5110972;28;20084;-38
2022/05/10 06:55:09;;;;;;;8.88;2.97;;;;;;;29.68;23.69;100235.81;5110864;28;20027;-38
2022/05/10 06:57:34;;;;;;;10.38;3.78;;;;;;;30.01;22.92;100228.00;5110552;28;20020;-38
2022/05/10 07:00:00;;;;;;;6.20;2.80;;;;;;;30.04;23.09;100232.03;5110365;28;20359;-37
2022/05/10 07:02:26;;;;;;;9.82;3.20;;;;;;;30.33;22.63;100223.16;5110310;28;20096;-49
2022/05/10 07:04:52;;;;;;;9.98;4.28;;;;;;;28.95;23.15;100223.31;5110453;28;20043;-37
2022/05/10 07:07:18;;;;;;;9.27;6.38;;;;;;;28.11;24.29;100226.78;5110434;28;20120;-37
2022/05/10 07:09:44;;;;;;;7.68;3.30;;;;;;;28.90;24.09;100220.75;5110421;28;20412;-38
2022/05/10 07:12:10;;;;;;;5.45;2.95;;;;;;;29.61;24.96;100220.66;5110399;28;20078;-37
2022/05/10 07:14:36;;;;;;;7.20;2.97;;;;;;;29.62;28.63;100225.03;5092154;28;20485;-38
2022/05/10 07:17:02;;;;;;;5.45;2.70;;;;;;;29.67;27.34;100221.31;5110378;28;20074;-37
2022/05/10 07:19:27;;;;;;;4.22;2.65;;;;;;;30.18;26.91;100228.00;5110605;28;20027;-38
2022/05/10 07:21:53;;;;;;;7.95;3.00;;;;;;;29.39;26.27;100221.56;5110168;28;20080;-38
2022/05/10 07:24:19;;;;;;;6.00;2.60;;;;;;;29.76;26.96;100218.63;5110060;28;20114;-36
2022/05/10 07:26:47;;;;;;;4.05;2.63;;;;;;;30.38;25.65;100229.28;5110076;28;20046;-37
2022/05/10 07:29:15;;;;;;;4.53;2.42;;;;;;;30.84;24.96;100228.88;5109940;28;20483;-37
2022/05/10 07:31:40;;;;;;;5.97;2.70;;;;;;;31.17;22.64;100232.66;5110135;28;20731;-38
2022/05/10 07:34:06;;;;;;;5.90;2.75;;;;;;;30.60;22.46;100220.06;5110120;28;20094;-37
2022/05/10 07:36:35;;;;;;;4.75;2.33;;;;;;;30.27;22.37;100227.16;5093868;28;20024;-38
2022/05/10 07:39:05;;;;;;;6.30;3.10;;;;;;;29.07;22.69;100217.25;5092160;28;20039;-37
2022/05/10 07:41:31;;;;;;;8.32;2.80;;;;;;;29.48;22.57;100213.38;5089942;28;20125;-38
2022/05/10 07:43:57;;;;;;;5.78;2.40;;;;;;;29.11;23.30;100211.94;5090081;28;20062;-37
2022/05/10 07:46:23;;;;;;;7.90;2.60;;;;;;;27.45;24.09;100214.22;5089962;28;20511;-37
2022/05/10 07:48:49;;;;;;;6.25;2.15;;;;;;;28.55;23.01;100225.19;5090006;28;20130;-37
2022/05/10 07:51:15;;;;;;;6.45;2.50;;;;;;;28.57;23.18;100217.47;5090197;28;20019;-38
2022/05/10 07:53:41;;;;;;;5.50;2.42;;;;;;;28.85;23.02;100215.38;5089702;28;20481;-37
2022/05/10 07:56:07;;;;;;;6.57;3.75;;;;;;;29.67;21.53;100218.56;5088932;28;20094;-38
2022/05/10 07:58:34;;;;;;;12.30;6.45;;;;;;;29.14;22.57;100219.56;5087433;28;20024;-36
2022/05/10 08:01:01;;;;;;;6.75;3.35;;;;;;;30.16;22.11;100205.56;5102604;28;20057;-37
2022/05/10 08:03:27;;;;;;;6.72;2.50;;;;;;;31.03;21.55;100215.56;5108836;28;20112;-37
2022/05/10 08:05:59;;;;;;;5.20;2.78;;;;;;;31.52;21.12;100212.44;5108832;28;20044;-39
2022/05/10 08:08:26;;;;;;;9.55;2.50;;;;;;;32.06;20.18;100215.31;5108788;28;20050;-37
2022/05/10 08:10:53;;;;;;;6.47;2.40;;;;;;;32.32;20.20;100215.06;5089505;28;20031;-37
2022/05/10 08:13:22;;;;;;;6.25;2.72;;;;;;;32.72;19.46;100211.75;5109258;28;20031;-37
2022/05/10 08:15:47;;;;;;;;;;;;;;;32.65;19.29;100210.69;5110284;28;20024;-37
2022/05/10 08:18:15;;;;;;;8.18;2.47;;;;;;;32.24;19.36;100204.94;5113433;28;19919;-38
2022/05/10 08:20:41;;;;;;;7.80;2.60;;;;;;;29.31;22.57;100197.69;5113715;28;20024;-40
2022/05/10 08:23:08;;;;;;;5.05;2.50;;;;;;;30.12;22.06;100203.78;5113524;28;20061;-38
2022/05/10 08:25:34;;;;;;;8.70;2.50;;;;;;;30.50;20.93;100198.44;5113618;28;20020;-38
2022/05/10 08:28:00;;;;;;;5.15;2.55;;;;;;;29.94;21.66;100205.72;5113046;28;20399;-38
2022/05/10 08:30:25;;;;;;;6.05;2.40;;;;;;;30.50;21.19;100197.63;5113071;28;20015;-38
2022/05/10 08:32:51;;;;;;;8.95;2.65;;;;;;;31.18;20.28;100197.72;5113474;28;20452;-38
2022/05/10 08:35:18;;;;;;;5.82;2.63;;;;;;;31.11;20.69;100192.75;5113461;28;20454;-38
2022/05/10 08:37:43;;;;;;;8.23;2.70;;;;;;;31.12;20.59;100193.56;5113104;28;20030;-37
2022/05/10 08:40:26;;;;;;;6.05;2.88;;;;;;;30.28;21.15;100193.91;5113139;28;20108;-38
2022/05/10 08:42:54;;;;;;;7.03;2.63;;;;;;;30.88;20.95;100191.34;5113087;28;20035;-39
2022/05/10 08:45:24;;;;;;;11.10;2.90;;;;;;;30.97;21.16;100186.66;5112889;28;20373;-39
2022/05/10 08:47:50;;;;;;;8.25;2.42;;;;;;;31.21;21.13;100188.81;5112980;28;20187;-38
2022/05/10 08:50:16;;;;;;;8.30;2.58;;;;;;;31.61;20.43;100191.19;5112985;28;20449;-38
2022/05/10 08:52:45;;;;;;;8.48;2.58;;;;;;;31.86;19.99;100185.84;5112825;28;20163;-38
2022/05/10 08:55:12;;;;;;;6.57;2.42;;;;;;;31.57;20.22;100190.25;5113087;28;20019;-37
2022/05/10 08:57:50;;;;;;;5.13;2.70;;;;;;;31.08;21.02;100179.66;5113109;28;20038;-36
2022/05/10 09:00:25;;;;;;;8.57;2.83;;;;;;;31.96;20.84;100182.66;5112900;28;20016;-36
2022/05/10 09:02:57;;;;;;;7.10;2.40;;;;;;;32.21;19.88;100191.84;5111860;28;20024;-37
2022/05/10 09:05:28;;;;;;;10.18;3.00;;;;;;;31.20;21.57;100189.16;5113109;28;20031;-37
2022/05/10 09:08:18;;;;;;;5.57;2.53;;;;;;;30.95;20.44;100180.69;5112742;28;20123;-38
2022/05/10 09:10:45;;;;;;;11.95;6.20;;;;;;;30.31;21.08;100176.81;5112271;28;20035;-37
2022/05/10 09:13:15;;;;;;;7.43;2.67;;;;;;;30.05;22.41;100182.31;5112141;28;20077;-37
2022/05/10 09:15:45;;;;;;;7.90;2.70;;;;;;;30.47;22.24;100176.31;5112572;28;20121;-37
2022/05/10 09:18:24;;;;;;;6.85;2.80;;;;;;;30.76;21.23;100175.56;5112240;28;20224;-37
2022/05/10 09:21:02;;;;;;;5.18;2.08;;;;;;;31.00;20.46;100172.28;5112389;28;20330;-38
2022/05/10 09:23:48;;;;;;;7.10;2.40;;;;;;;29.77;21.69;100168.94;5112588;28;20095;-38
2022/05/10 09:26:14;;;;;;;4.00;2.25;;;;;;;28.95;22.68;100170.47;5112472;28;20027;-38
2022/05/10 09:28:53;;;;;;;4.88;2.00;;;;;;;28.21;23.64;100164.41;5111859;28;20521;-37
2022/05/10 09:37:25;;;;;;;4.30;2.10;;;;;;;28.45;22.14;100153.13;5111929;28;20054;-38
2022/05/10 09:39:56;;;;;;;3.28;1.90;;;;;;;28.10;22.07;100154.84;5111353;28;20155;-37
2022/05/10 09:42:49;;;;;;;4.80;1.88;;;;;;;27.93;22.37;100154.72;5111564;28;20224;-36
2022/05/10 09:45:24;;;;;;;3.22;1.77;;;;;;;28.13;22.44;100146.03;5101515;28;20068;-37
2022/05/10 09:47:58;;;;;;;3.63;1.77;;;;;;;28.71;20.15;100143.47;5112055;28;20045;-37
2022/05/10 09:50:30;;;;;;;3.72;1.70;;;;;;;27.62;20.40;100144.47;5111722;28;20093;-37
2022/05/10 09:53:18;;;;;;;4.93;1.83;;;;;;;28.73;20.96;100150.25;5111446;28;20339;-36
2022/05/10 09:56:03;;;;;;;2.33;1.50;;;;;;;28.18;18.01;100145.06;5111534;28;20095;-38
2022/05/10 09:58:30;;;;;;;8.85;4.53;;;;;;;28.07;19.62;100142.59;5112005;28;20099;-38
2022/05/10 10:00:56;;;;;;;2.28;1.38;;;;;;;27.91;16.08;100141.34;5110942;28;20463;-37
2022/05/10 10:03:27;;;;;;;1.35;1.00;;;;;;;28.75;14.63;100128.84;5110962;28;20031;-37
2022/05/10 10:05:56;;;;;;;3.55;1.27;;;;;;;29.30;15.04;100122.09;5111075;28;20136;-38
2022/05/10 10:08:43;;;;;;;3.58;1.50;;;;;;;29.21;15.41;100115.81;5111306;28;20031;-38
2022/05/10 10:11:33;;;;;;;3.85;1.50;;;;;;;29.02;18.60;100110.56;5111668;28;20028;-38
2022/05/10 10:14:04;;;;;;;3.15;1.63;;;;;;;29.55;18.69;100115.03;5111061;28;20027;-38
2022/05/10 10:16:53;;;;;;;2.75;1.52;;;;;;;30.12;17.41;100114.06;5111554;28;20046;-37
2022/05/10 10:19:18;;;;;;;3.25;1.30;;;;;;;28.96;16.21;100111.81;5111878;28;20028;-37
2022/05/10 10:21:56;;;;;;;4.13;1.35;;;;;;;29.13;16.01;100095.47;5111535;28;20054;-37
2022/05/10 10:24:29;;;;;;;1.45;1.17;;;;;;;28.20;16.55;100096.34;5111674;28;20079;-39
2022/05/10 10:27:02;;;;;;;3.10;1.50;;;;;;;28.13;17.14;100102.25;5111394;28;20035;-37
2022/05/10 10:30:13;;;;;;;1.98;1.48;;;;;;;27.90;18.47;100096.00;5111007;28;20394;-37
2022/05/10 10:32:45;;;;;;;3.75;1.50;;;;;;;28.52;16.91;100072.53;5008296;28;20405;-37
2022/05/10 10:35:42;;;;;;;2.63;1.40;;;;;;;28.84;16.94;100082.31;5101421;28;20114;-37
2022/05/10 10:38:19;;;;;;;5.05;1.60;;;;;;;28.36;17.36;100086.59;5110771;28;20123;-37
2022/05/10 10:41:18;;;;;;;3.15;1.50;;;;;;;27.63;17.75;100086.75;5110141;28;20107;-38
2022/05/10 10:43:54;;;;;;;2.78;1.38;;;;;;;28.71;17.39;100075.84;5092302;28;20039;-38
2022/05/10 10:46:36;;;;;;;3.00;1.20;;;;;;;29.04;16.19;100069.97;5111120;28;20377;-39
2022/05/10 10:49:12;;;;;;;2.47;1.40;;;;;;;28.57;16.76;100075.94;5110228;28;20091;-38
2022/05/10 10:51:37;;;;;;;2.65;1.20;;;;;;;27.92;16.35;100069.16;5110963;28;20028;-38
2022/05/10 10:54:04;;;;;;;2.65;1.17;;;;;;;28.37;16.51;100073.72;5110379;28;20019;-38
2022/05/10 10:56:35;;;;;;;1.90;1.05;;;;;;;29.16;16.09;100063.88;5110551;28;20103;-38
2022/05/10 10:59:42;;;;;;;3.88;1.50;;;;;;;27.75;17.90;100078.00;5110200;28;20024;-36
2022/05/10 11:02:38;;;;;;;3.38;1.30;;;;;;;27.96;17.82;100058.38;5007496;28;20458;-38
2022/05/10 11:05:28;;;;;;;2.65;1.20;;;;;;;28.54;18.65;100056.59;5089204;28;20036;-37
2022/05/10 11:08:18;;;;;;;3.25;1.50;;;;;;;27.97;19.39;100062.72;5088912;28;20055;-38
2022/05/10 11:11:03;;;;;;;4.15;1.40;;;;;;;27.93;19.27;100062.56;5088903;28;20052;-37
2022/05/10 11:13:58;;;;;;;2.70;1.35;;;;;;;26.53;19.32;100061.16;5089342;28;20107;-38
2022/05/10 11:16:23;;;;;;;4.50;1.73;;;;;;;26.68;20.27;100051.09;5090123;28;20425;-37
2022/05/10 11:19:16;;;;;;;1.90;1.30;;;;;;;26.14;19.77;100054.25;5089822;28;20059;-37
2022/05/10 11:22:15;;;;;;;4.75;1.45;;;;;;;26.89;19.53;100054.22;5101060;28;20136;-38
2022/05/10 11:25:22;;;;;;;1.75;1.23;;;;;;;27.07;18.98;100052.47;5110022;28;20411;-38
2022/05/10 11:28:26;;;;;;;3.80;1.27;;;;;;;26.96;18.60;100046.44;5027345;28;20530;-37
2022/05/10 11:31:16;;;;;;;2.83;1.40;;;;;;;27.77;18.54;100036.69;5005612;28;20045;-37
2022/05/10 11:33:56;;;;;;;2.63;1.50;;;;;;;28.75;17.88;100032.19;5099921;28;20043;-38
2022/05/10 11:36:40;;;;;;;;;;;;;;;27.97;17.61;100041.69;5109885;28;20027;-37
2022/05/10 11:39:30;;;;;;;2.45;1.40;;;;;;;26.30;18.99;100043.06;5109436;28;19911;-37
2022/05/10 11:42:16;;;;;;;1.52;1.20;;;;;;;26.26;19.19;100042.06;5109551;28;20137;-38
2022/05/10 11:44:45;;;;;;;2.17;1.25;;;;;;;26.53;18.56;100035.81;5109586;28;20100;-36
2022/05/10 11:47:17;;;;;;;3.03;1.60;;;;;;;26.36;18.46;100020.03;5109405;28;20061;-37
2022/05/10 11:49:57;;;;;;;4.50;1.58;;;;;;;26.62;19.17;100017.66;5109060;28;20321;-37
2022/05/10 11:52:38;;;;;;;2.35;1.30;;;;;;;27.00;18.74;100024.78;5112962;28;20020;-37
2022/05/10 11:55:15;;;;;;;3.70;1.42;;;;;;;26.47;20.28;100024.19;5113604;28;20023;-37
2022/05/10 11:57:42;;;;;;;2.15;1.30;;;;;;;26.35;19.27;100012.97;5113207;28;20176;-36
2022/05/10 12:00:26;;;;;;;2.80;1.17;;;;;;;26.04;19.06;100016.25;5113106;28;20023;-38
2022/05/10 12:02:52;;;;;;;2.08;1.35;;;;;;;26.39;18.97;100002.25;5112623;28;20142;-38